Time;durP1;ratioP1;P1;durP2;ratioP2;P2;SDS_P1;SDS_P2;PMS_P1;PMS_P2;Temp;Humidity;BMP_temperature;BMP_pressure;BME280_temperature;BME280_humidity;BME280_pressure;Samples;Min_cycle;Max_cycle;Signal;HPM_P1;HPM_P2
2021/10/19 00:00:23;;;;;;;21.10;16.70;;;7.90;99.90;;;;;;5083641;28;20441;-49
2021/10/19 00:02:49;;;;;;;19.90;15.77;;;7.90;99.90;;;;;;5089410;28;20444;-50
2021/10/19 00:05:14;;;;;;;19.47;14.83;;;7.80;99.90;;;;;;5085066;28;20225;-48
2021/10/19 00:07:41;;;;;;;21.80;16.00;;;7.80;99.90;;;;;;5088066;28;20200;-52
2021/10/19 00:10:08;;;;;;;18.03;15.13;;;7.80;99.90;;;;;;5088279;28;20181;-54
2021/10/19 00:12:34;;;;;;;21.20;15.70;;;7.80;99.90;;;;;;5086508;28;20442;-51
2021/10/19 00:15:00;;;;;;;22.00;16.30;;;7.80;99.90;;;;;;5089458;28;20963;-53
2021/10/19 00:17:26;;;;;;;19.03;16.00;;;7.90;99.90;;;;;;5084870;28;20442;-51
2021/10/19 00:19:51;;;;;;;19.67;15.47;;;7.90;99.90;;;;;;5084411;28;21146;-51
2021/10/19 00:22:17;;;;;;;19.60;16.67;;;7.90;99.90;;;;;;5087959;28;20197;-54
2021/10/19 00:24:43;;;;;;;19.40;16.30;;;7.90;99.90;;;;;;5085532;28;20284;-48
2021/10/19 00:27:08;;;;;;;22.50;15.40;;;8.10;99.90;;;;;;5088303;28;20449;-52
2021/10/19 00:29:34;;;;;;;19.00;15.53;;;8.00;99.90;;;;;;5088664;28;20640;-51
2021/10/19 00:32:00;;;;;;;20.73;15.90;;;8.10;99.90;;;;;;5087470;28;20208;-53
2021/10/19 00:34:25;;;;;;;20.87;16.47;;;8.00;99.90;;;;;;5088440;28;20288;-54
2021/10/19 00:36:51;;;;;;;20.03;16.23;;;8.00;99.90;;;;;;5082476;28;20193;-53
2021/10/19 00:39:17;;;;;;;18.37;16.07;;;8.00;99.90;;;;;;5089048;28;20208;-53
2021/10/19 00:41:43;;;;;;;22.17;14.77;;;8.10;99.90;;;;;;5090758;28;20184;-49
2021/10/19 00:44:08;;;;;;;20.40;15.00;;;8.10;99.90;;;;;;5093138;28;20184;-49
2021/10/19 00:46:34;;;;;;;17.73;14.97;;;8.20;99.90;;;;;;5091303;28;20473;-57
2021/10/19 00:49:00;;;;;;;19.07;15.47;;;8.20;99.90;;;;;;5093067;28;20551;-50
2021/10/19 00:51:25;;;;;;;16.83;14.67;;;8.30;99.90;;;;;;5091691;28;20239;-56
2021/10/19 00:53:51;;;;;;;18.20;15.30;;;8.20;99.90;;;;;;5086813;28;20722;-55
2021/10/19 00:56:17;;;;;;;17.47;14.23;;;8.30;99.90;;;;;;5089606;28;20261;-52
2021/10/19 00:58:43;;;;;;;17.93;14.00;;;8.30;99.90;;;;;;5092051;28;20456;-49
2021/10/19 01:01:09;;;;;;;18.93;14.90;;;8.30;99.90;;;;;;5091415;28;20185;-52
2021/10/19 01:03:34;;;;;;;18.93;14.97;;;8.40;99.90;;;;;;5092047;28;20189;-54
2021/10/19 01:06:03;;;;;;;19.20;15.80;;;8.30;99.90;;;;;;5090767;28;20924;-51
2021/10/19 01:08:29;;;;;;;21.63;15.97;;;8.40;99.90;;;;;;5091269;28;20287;-49
2021/10/19 01:10:55;;;;;;;22.37;15.60;;;8.40;99.90;;;;;;5092140;28;20446;-51
2021/10/19 01:13:21;;;;;;;17.80;13.73;;;8.40;99.90;;;;;;5091179;28;20468;-51
2021/10/19 01:15:47;;;;;;;18.50;15.33;;;8.40;99.90;;;;;;5089441;28;20580;-52
2021/10/19 01:18:15;;;;;;;16.90;13.80;;;8.30;99.90;;;;;;5090956;28;20442;-50
2021/10/19 01:20:41;;;;;;;17.97;15.30;;;8.30;99.90;;;;;;5086476;28;21104;-52
2021/10/19 01:23:08;;;;;;;17.40;14.40;;;8.30;99.90;;;;;;5088626;28;20439;-48
2021/10/19 01:25:34;;;;;;;18.10;14.77;;;8.30;99.90;;;;;;5083669;28;20434;-52
2021/10/19 01:28:05;;;;;;;18.47;14.80;;;8.30;99.90;;;;;;5088795;28;21233;-51
2021/10/19 01:30:32;;;;;;;18.60;15.07;;;8.30;99.90;;;;;;5091190;28;20197;-49
2021/10/19 01:32:58;;;;;;;15.83;13.73;;;8.30;99.90;;;;;;5091510;28;20858;-52
2021/10/19 01:35:34;;;;;;;17.80;14.40;;;8.30;99.90;;;;;;5090897;28;20559;-51
2021/10/19 01:38:00;;;;;;;15.73;13.43;;;8.20;99.90;;;;;;5083476;28;20469;-51
2021/10/19 01:40:26;;;;;;;17.40;13.70;;;8.20;99.90;;;;;;5090867;28;20454;-54
2021/10/19 01:42:51;;;;;;;17.97;14.80;;;8.20;99.90;;;;;;5087461;28;22741;-48
2021/10/19 01:45:18;;;;;;;16.30;14.50;;;8.20;99.90;;;;;;5091510;28;20224;-51
2021/10/19 01:47:45;;;;;;;16.43;14.73;;;8.20;99.90;;;;;;5092039;28;20189;-51
2021/10/19 01:50:15;;;;;;;22.23;14.27;;;8.20;99.90;;;;;;5084813;28;20804;-49
2021/10/19 01:52:42;;;;;;;19.20;14.70;;;8.20;99.90;;;;;;5085319;28;20796;-48
2021/10/19 01:55:08;;;;;;;16.67;14.27;;;8.20;99.90;;;;;;5091354;28;20470;-49
2021/10/19 01:57:34;;;;;;;16.37;13.70;;;8.30;99.90;;;;;;5088686;28;20499;-44
2021/10/19 02:00:01;;;;;;;16.10;13.67;;;8.30;99.90;;;;;;5090313;28;20435;-48
2021/10/19 02:02:27;;;;;;;15.87;13.30;;;8.30;99.90;;;;;;5091108;28;20438;-49
2021/10/19 02:04:53;;;;;;;15.27;13.67;;;8.40;99.90;;;;;;5089580;28;20443;-52
2021/10/19 02:07:18;;;;;;;17.20;13.43;;;8.40;99.90;;;;;;5085393;28;20196;-48
2021/10/19 02:09:44;;;;;;;16.20;13.27;;;8.40;99.90;;;;;;5085729;28;20434;-50
2021/10/19 02:12:09;;;;;;;16.53;13.50;;;8.50;99.90;;;;;;5091111;28;20238;-51
2021/10/19 02:14:35;;;;;;;14.73;13.00;;;8.50;99.90;;;;;;5090256;28;20632;-53
2021/10/19 02:17:01;;;;;;;16.50;13.50;;;8.60;99.90;;;;;;5087951;28;20188;-50
2021/10/19 02:19:28;;;;;;;14.80;12.43;;;8.70;99.90;;;;;;5086754;28;20189;-51
2021/10/19 02:21:53;;;;;;;16.37;13.67;;;8.80;99.90;;;;;;5090532;28;20185;-51
2021/10/19 02:24:19;;;;;;;13.87;12.37;;;8.80;99.90;;;;;;5090615;28;20931;-55
2021/10/19 02:26:46;;;;;;;14.77;12.47;;;8.90;99.90;;;;;;5090367;28;20283;-56
2021/10/19 02:29:13;;;;;;;14.57;12.50;;;8.90;99.90;;;;;;5090377;28;20828;-50
2021/10/19 02:31:38;;;;;;;15.90;11.80;;;8.90;99.90;;;;;;5090342;28;20837;-56
2021/10/19 02:34:04;;;;;;;15.53;12.03;;;9.00;99.90;;;;;;5089913;28;20569;-49
2021/10/19 02:36:32;;;;;;;14.83;11.77;;;9.10;99.90;;;;;;5090245;28;20209;-51
2021/10/19 02:38:59;;;;;;;14.00;12.27;;;9.20;99.90;;;;;;5088456;28;20177;-51
2021/10/19 02:41:24;;;;;;;14.93;11.90;;;9.30;99.90;;;;;;5085304;28;20435;-52
2021/10/19 02:43:49;;;;;;;13.00;11.40;;;9.30;99.90;;;;;;5091020;28;20961;-53
2021/10/19 02:46:15;;;;;;;13.83;11.77;;;9.40;99.90;;;;;;5089257;28;20177;-50
2021/10/19 02:48:41;;;;;;;16.40;12.40;;;9.40;99.90;;;;;;5085034;28;20584;-48
2021/10/19 02:51:06;;;;;;;12.87;10.90;;;9.40;99.90;;;;;;5079877;28;20232;-50
2021/10/19 02:53:32;;;;;;;13.37;11.97;;;9.40;99.90;;;;;;5090859;28;20231;-50
2021/10/19 02:55:57;;;;;;;13.87;11.60;;;9.50;99.90;;;;;;5088843;28;20193;-58
2021/10/19 02:58:23;;;;;;;13.57;11.67;;;9.40;99.90;;;;;;5090811;28;20238;-49
2021/10/19 03:00:48;;;;;;;12.60;11.00;;;9.50;99.90;;;;;;5089026;28;20228;-49
2021/10/19 03:03:14;;;;;;;12.00;10.67;;;9.60;99.90;;;;;;5089532;28;20208;-48
2021/10/19 03:05:40;;;;;;;15.10;10.80;;;9.60;99.90;;;;;;5081748;28;20232;-50
2021/10/19 03:08:05;;;;;;;12.17;10.93;;;9.70;99.90;;;;;;5087534;28;20605;-48
2021/10/19 03:10:31;;;;;;;13.43;12.03;;;9.80;99.90;;;;;;5089189;28;20426;-53
2021/10/19 03:12:56;;;;;;;14.60;11.63;;;9.80;99.90;;;;;;5088921;28;20685;-50
2021/10/19 03:15:24;;;;;;;13.30;11.90;;;9.80;99.90;;;;;;5089763;28;20212;-46
2021/10/19 03:17:50;;;;;;;12.80;11.20;;;9.70;99.90;;;;;;5089136;28;20208;-53
2021/10/19 03:20:15;;;;;;;12.47;11.13;;;9.70;99.90;;;;;;5088233;28;20478;-47
2021/10/19 03:22:41;;;;;;;12.47;10.90;;;9.60;99.90;;;;;;5089331;28;20788;-55
2021/10/19 03:25:07;;;;;;;14.93;12.37;;;9.60;99.90;;;;;;5089801;28;20189;-51
2021/10/19 03:27:33;;;;;;;13.40;11.57;;;9.60;99.90;;;;;;5084869;28;20848;-52
2021/10/19 03:29:58;;;;;;;11.77;10.50;;;9.60;99.90;;;;;;5089140;28;20526;-46
2021/10/19 03:32:24;;;;;;;12.70;10.50;;;9.60;99.90;;;;;;5088833;28;20831;-50
2021/10/19 03:34:49;;;;;;;12.03;10.83;;;9.50;99.90;;;;;;5086656;28;20597;-49
2021/10/19 03:37:15;;;;;;;12.60;10.70;;;9.50;99.90;;;;;;5089390;28;20647;-53
2021/10/19 03:39:40;;;;;;;13.73;11.20;;;9.50;99.90;;;;;;5087873;28;20192;-52
2021/10/19 03:42:06;;;;;;;13.10;10.80;;;9.40;99.90;;;;;;5089710;28;20254;-49
2021/10/19 03:44:32;;;;;;;11.63;10.43;;;9.40;99.90;;;;;;5088445;28;20193;-49
2021/10/19 03:46:57;;;;;;;17.27;11.60;;;9.30;99.90;;;;;;5085630;28;20238;-50
2021/10/19 03:49:23;;;;;;;13.00;11.23;;;9.30;99.90;;;;;;5083503;28;20231;-49
2021/10/19 03:51:49;;;;;;;14.50;11.33;;;9.30;99.90;;;;;;5077563;28;20239;-48
2021/10/19 03:54:14;;;;;;;13.00;10.80;;;9.30;99.90;;;;;;5087187;28;20213;-49
2021/10/19 03:56:40;;;;;;;13.13;11.80;;;9.30;99.90;;;;;;5080770;28;20193;-52
2021/10/19 03:59:05;;;;;;;11.57;10.47;;;9.40;99.90;;;;;;5082430;28;20181;-51
2021/10/19 04:01:31;;;;;;;11.57;10.33;;;9.40;99.90;;;;;;5085409;28;20718;-53
2021/10/19 04:03:56;;;;;;;10.73;9.63;;;9.50;99.90;;;;;;5088739;28;20255;-49
2021/10/19 04:06:22;;;;;;;11.10;9.87;;;9.60;99.90;;;;;;5086966;28;20192;-58
2021/10/19 04:08:47;;;;;;;12.27;10.73;;;9.70;99.90;;;;;;5080277;28;20189;-54
2021/10/19 04:11:13;;;;;;;12.40;10.00;;;9.70;99.90;;;;;;5083233;28;20180;-55
2021/10/19 04:13:38;;;;;;;11.50;10.27;;;9.80;99.90;;;;;;5082948;28;20217;-50
2021/10/19 04:16:04;;;;;;;11.90;10.60;;;9.90;99.90;;;;;;5079983;28;20193;-52
2021/10/19 04:18:30;;;;;;;14.93;10.63;;;9.90;99.90;;;;;;5078748;28;20554;-50
2021/10/19 04:20:55;;;;;;;11.70;10.17;;;10.00;99.90;;;;;;5078995;28;20542;-51
2021/10/19 04:23:22;;;;;;;11.83;10.30;;;10.10;99.90;;;;;;5077003;28;20246;-52
2021/10/19 04:25:48;;;;;;;10.73;9.63;;;10.20;99.90;;;;;;5079602;28;20275;-53
2021/10/19 04:28:13;;;;;;;11.87;10.20;;;10.20;99.90;;;;;;5080482;28;20415;-56
2021/10/19 04:30:39;;;;;;;11.37;10.13;;;10.20;99.90;;;;;;5078724;28;20442;-52
2021/10/19 04:33:05;;;;;;;13.47;10.97;;;10.20;99.90;;;;;;5076724;28;20189;-51
2021/10/19 04:35:31;;;;;;;12.47;10.97;;;10.30;99.90;;;;;;5079301;28;20320;-49
2021/10/19 04:37:56;;;;;;;12.20;10.27;;;10.30;99.90;;;;;;5077006;28;20431;-55
2021/10/19 04:40:22;;;;;;;10.97;9.87;;;10.40;99.90;;;;;;5079888;28;20478;-58
2021/10/19 04:42:47;;;;;;;12.30;11.00;;;10.30;99.90;;;;;;5082110;28;20277;-52
2021/10/19 04:45:16;;;;;;;14.37;10.97;;;10.30;99.90;;;;;;5088033;28;20211;-55
2021/10/19 04:47:42;;;;;;;12.70;11.40;;;10.30;99.90;;;;;;5085802;28;20364;-49
2021/10/19 04:50:08;;;;;;;15.43;11.10;;;10.20;99.90;;;;;;5087122;28;20802;-52
2021/10/19 04:52:34;;;;;;;11.87;10.63;;;10.20;99.90;;;;;;5086633;28;20478;-53
2021/10/19 04:54:59;;;;;;;11.50;10.33;;;10.10;99.90;;;;;;5085529;28;20230;-52
2021/10/19 04:57:25;;;;;;;14.03;11.40;;;10.20;99.90;;;;;;5086431;28;20241;-54
2021/10/19 04:59:50;;;;;;;12.80;11.03;;;10.20;99.90;;;;;;5085726;28;20189;-58
2021/10/19 05:02:16;;;;;;;11.40;10.20;;;10.20;99.90;;;;;;5079035;28;20695;-50
2021/10/19 05:04:42;;;;;;;16.70;11.33;;;10.20;99.90;;;;;;5083165;28;20719;-55
2021/10/19 05:07:07;;;;;;;11.83;10.37;;;10.30;99.90;;;;;;5080690;28;20217;-52
2021/10/19 05:09:33;;;;;;;12.87;10.53;;;10.30;99.90;;;;;;5085059;28;20185;-55
2021/10/19 05:11:59;;;;;;;13.33;11.27;;;10.40;99.90;;;;;;5088057;28;20207;-53
2021/10/19 05:14:25;;;;;;;13.30;10.37;;;10.50;99.90;;;;;;5087662;28;20205;-49
2021/10/19 05:16:50;;;;;;;12.13;10.70;;;10.50;99.90;;;;;;5087837;28;20435;-52
2021/10/19 05:19:16;;;;;;;12.77;10.80;;;10.50;99.90;;;;;;5088927;28;20506;-51
2021/10/19 05:21:41;;;;;;;15.77;11.60;;;10.60;99.90;;;;;;5083395;28;20181;-52
2021/10/19 05:24:07;;;;;;;13.40;12.00;;;10.60;99.90;;;;;;5088507;28;20313;-52
2021/10/19 05:26:32;;;;;;;15.53;11.90;;;10.70;99.90;;;;;;5085492;28;20177;-50
2021/10/19 05:28:58;;;;;;;13.20;11.80;;;10.70;99.90;;;;;;5089643;28;20850;-52
2021/10/19 05:31:23;;;;;;;13.90;12.00;;;10.70;99.90;;;;;;5092159;28;20552;-55
2021/10/19 05:33:49;;;;;;;13.27;11.97;;;10.70;99.90;;;;;;5091348;28;20205;-51
2021/10/19 05:36:14;;;;;;;12.63;11.33;;;10.80;99.90;;;;;;5086702;28;20197;-54
2021/10/19 05:38:40;;;;;;;13.10;11.63;;;10.80;99.90;;;;;;5086881;28;20200;-51
2021/10/19 05:41:06;;;;;;;13.77;11.70;;;10.70;99.90;;;;;;5091936;28;20189;-52
2021/10/19 05:43:31;;;;;;;14.83;11.93;;;10.80;99.90;;;;;;5090319;28;21665;-51
2021/10/19 05:45:57;;;;;;;15.50;12.97;;;10.70;99.90;;;;;;5087871;28;20859;-54
2021/10/19 05:48:23;;;;;;;14.70;13.10;;;10.70;99.90;;;;;;5092189;28;20193;-52
2021/10/19 05:50:48;;;;;;;13.40;12.00;;;10.70;99.90;;;;;;5091078;28;20474;-52
2021/10/19 05:53:14;;;;;;;12.73;11.40;;;10.80;99.90;;;;;;5089795;28;20199;-54
2021/10/19 05:55:39;;;;;;;15.57;13.07;;;10.90;99.90;;;;;;5090885;28;20196;-53
2021/10/19 05:58:05;;;;;;;14.37;12.80;;;10.90;99.90;;;;;;5091413;28;20219;-52
2021/10/19 06:00:32;;;;;;;17.97;12.50;;;10.90;99.90;;;;;;5091179;28;20189;-53
2021/10/19 06:02:58;;;;;;;13.57;12.17;;;10.90;99.90;;;;;;5091855;28;20180;-57
2021/10/19 06:05:23;;;;;;;14.57;12.67;;;10.90;99.90;;;;;;5090938;28;20442;-55
2021/10/19 06:07:51;;;;;;;16.80;13.17;;;10.90;99.90;;;;;;5091680;28;20192;-53
2021/10/19 06:10:20;;;;;;;15.70;12.40;;;10.80;99.90;;;;;;5083015;28;20174;-51
2021/10/19 06:12:46;;;;;;;14.40;12.30;;;10.90;99.90;;;;;;5075966;28;20438;-52
2021/10/19 06:15:11;;;;;;;15.23;12.47;;;10.90;99.90;;;;;;5091509;28;20458;-49
2021/10/19 06:17:37;;;;;;;15.10;12.67;;;10.90;99.90;;;;;;5080768;28;20185;-52
2021/10/19 06:20:04;;;;;;;17.03;13.27;;;10.90;99.90;;;;;;5091663;28;20173;-51
2021/10/19 06:22:30;;;;;;;15.00;12.27;;;10.90;99.90;;;;;;5091375;28;20181;-49
2021/10/19 06:24:55;;;;;;;14.60;12.10;;;10.90;99.90;;;;;;5091353;28;20415;-48
2021/10/19 06:27:21;;;;;;;16.00;12.47;;;11.00;99.90;;;;;;5090117;28;20438;-56
2021/10/19 06:29:46;;;;;;;17.97;13.07;;;11.00;99.90;;;;;;5086846;28;20208;-53
2021/10/19 06:32:12;;;;;;;16.30;12.27;;;11.10;99.90;;;;;;5089118;28;20708;-55
2021/10/19 06:34:37;;;;;;;16.37;12.97;;;11.10;99.90;;;;;;5090118;28;20399;-51
2021/10/19 06:37:03;;;;;;;13.47;11.60;;;11.10;99.90;;;;;;5087843;28;20189;-51
2021/10/19 06:39:29;;;;;;;15.40;12.60;;;11.20;99.90;;;;;;5076027;28;20187;-53
2021/10/19 06:41:54;;;;;;;14.67;11.90;;;11.10;99.90;;;;;;5090150;28;20193;-54
2021/10/19 06:44:20;;;;;;;14.13;12.50;;;11.10;99.90;;;;;;5091126;28;20209;-50
2021/10/19 06:46:46;;;;;;;16.50;13.20;;;11.20;99.90;;;;;;5089394;28;20528;-51
2021/10/19 06:49:13;;;;;;;16.20;13.47;;;11.20;99.90;;;;;;5090859;28;20929;-55
2021/10/19 06:51:39;;;;;;;13.97;12.47;;;11.20;99.90;;;;;;5088654;28;20474;-51
2021/10/19 06:54:05;;;;;;;16.63;13.40;;;11.20;99.90;;;;;;5090877;28;20455;-53
2021/10/19 06:56:30;;;;;;;17.70;12.23;;;11.20;99.90;;;;;;5080712;28;20193;-51
2021/10/19 06:58:56;;;;;;;16.83;12.60;;;11.20;99.90;;;;;;5070559;28;20162;-53
2021/10/19 07:01:21;;;;;;;15.90;12.93;;;11.30;99.90;;;;;;5085401;28;20227;-52
2021/10/19 07:03:47;;;;;;;14.53;12.53;;;11.30;99.90;;;;;;5090779;28;20234;-55
2021/10/19 07:06:13;;;;;;;15.50;12.80;;;11.30;99.90;;;;;;5089461;28;20197;-53
2021/10/19 07:08:38;;;;;;;15.57;13.43;;;11.30;99.90;;;;;;5089158;28;20188;-49
2021/10/19 07:11:05;;;;;;;16.50;13.50;;;11.40;99.90;;;;;;5090350;28;20889;-50
2021/10/19 07:13:30;;;;;;;15.50;13.30;;;11.30;99.90;;;;;;5089959;28;20171;-49
2021/10/19 07:15:56;;;;;;;16.67;13.73;;;11.40;99.90;;;;;;5089663;28;20544;-57
2021/10/19 07:18:24;;;;;;;15.87;13.83;;;11.40;99.90;;;;;;5090417;28;20209;-51
2021/10/19 07:20:50;;;;;;;15.07;12.93;;;11.50;99.90;;;;;;5089618;28;20897;-53
2021/10/19 07:23:17;;;;;;;16.27;13.60;;;11.60;99.90;;;;;;5090233;28;20439;-53
2021/10/19 07:25:43;;;;;;;14.40;12.63;;;11.60;99.90;;;;;;5088718;28;20426;-54
2021/10/19 07:28:09;;;;;;;16.10;13.70;;;11.60;99.90;;;;;;5080179;28;21266;-54
2021/10/19 07:30:35;;;;;;;15.07;12.97;;;11.60;99.90;;;;;;5085795;28;20530;-50
2021/10/19 07:33:00;;;;;;;15.40;13.80;;;11.60;99.90;;;;;;5087223;28;20446;-49
2021/10/19 07:35:26;;;;;;;15.37;13.40;;;11.60;99.90;;;;;;5087973;28;20232;-50
2021/10/19 07:37:51;;;;;;;17.03;12.83;;;11.50;99.90;;;;;;5087723;28;20242;-52
2021/10/19 07:40:19;;;;;;;14.93;13.30;;;11.60;99.90;;;;;;5084840;28;20189;-50
2021/10/19 07:42:45;;;;;;;16.23;13.70;;;11.50;99.90;;;;;;5085020;28;20273;-53
2021/10/19 07:45:12;;;;;;;17.30;14.27;;;11.70;99.90;;;;;;5088883;28;20909;-50
2021/10/19 07:47:42;;;;;;;18.53;14.17;;;11.70;99.90;;;;;;5077541;28;20670;-54
2021/10/19 07:50:12;;;;;;;15.57;13.47;;;11.70;99.90;;;;;;5078355;28;20469;-49
2021/10/19 07:52:38;;;;;;;15.07;13.50;;;11.80;99.90;;;;;;5087995;28;20434;-52
2021/10/19 07:55:05;;;;;;;16.60;14.33;;;11.80;99.90;;;;;;5087398;28;20460;-52
2021/10/19 07:57:31;;;;;;;16.83;13.73;;;11.90;99.90;;;;;;5079715;28;20781;-54
2021/10/19 07:59:56;;;;;;;14.80;13.30;;;12.00;99.90;;;;;;5081699;28;20425;-51
2021/10/19 08:02:22;;;;;;;14.97;13.20;;;12.10;99.90;;;;;;5081593;28;20525;-47
2021/10/19 08:04:47;;;;;;;16.07;13.53;;;12.10;99.90;;;;;;5079827;28;20202;-52
2021/10/19 08:07:13;;;;;;;14.37;12.80;;;12.10;99.90;;;;;;5077259;28;20670;-55
2021/10/19 08:09:38;;;;;;;18.20;15.00;;;12.20;99.90;;;;;;5079873;28;20243;-54
2021/10/19 08:12:04;;;;;;;13.00;11.50;;;12.30;99.90;;;;;;5083282;28;20280;-52
2021/10/19 08:14:30;;;;;;;15.20;13.60;;;12.40;99.90;;;;;;5085619;28;20284;-53
2021/10/19 08:16:56;;;;;;;14.30;12.90;;;12.40;99.90;;;;;;5086175;28;21034;-52
2021/10/19 08:19:21;;;;;;;16.67;12.67;;;12.40;99.90;;;;;;5085383;28;20188;-54
2021/10/19 08:21:47;;;;;;;13.93;12.53;;;12.60;99.90;;;;;;5087245;28;20243;-54
2021/10/19 08:24:13;;;;;;;15.00;13.50;;;12.70;99.90;;;;;;5084545;28;20197;-52
2021/10/19 08:26:38;;;;;;;14.57;12.97;;;12.80;99.90;;;;;;5086502;28;20643;-55
2021/10/19 08:29:04;;;;;;;14.37;12.87;;;13.10;99.90;;;;;;5086543;28;20189;-57
2021/10/19 08:31:30;;;;;;;13.83;12.40;;;13.00;99.90;;;;;;5079805;28;20189;-50
2021/10/19 08:33:57;;;;;;;14.63;12.60;;;13.20;99.90;;;;;;5081751;28;20442;-52
2021/10/19 08:36:23;;;;;;;15.47;13.87;;;13.30;99.90;;;;;;5088343;28;20485;-56
2021/10/19 08:38:49;;;;;;;15.00;13.33;;;13.30;99.90;;;;;;5087233;28;20438;-58
2021/10/19 08:41:16;;;;;;;14.37;12.97;;;13.30;99.90;;;;;;5083238;28;20182;-53
2021/10/19 08:43:43;;;;;;;14.67;13.00;;;13.50;99.90;;;;;;5080778;28;20466;-53
2021/10/19 08:46:10;;;;;;;14.40;13.00;;;13.80;99.90;;;;;;5088372;28;20433;-54
2021/10/19 08:48:38;;;;;;;15.37;13.87;;;14.00;99.90;;;;;;5086997;28;20817;-54
2021/10/19 08:51:04;;;;;;;15.00;13.50;;;14.20;99.90;;;;;;5088217;28;20973;-58
2021/10/19 08:53:30;;;;;;;14.50;13.00;;;14.40;99.90;;;;;;5089942;28;20423;-51
2021/10/19 08:55:56;;;;;;;14.53;13.07;;;14.60;99.90;;;;;;5089626;28;20528;-54
2021/10/19 08:58:21;;;;;;;13.40;12.10;;;14.80;99.80;;;;;;5089520;28;20484;-55
2021/10/19 09:00:47;;;;;;;15.43;13.90;;;15.20;98.80;;;;;;5088272;28;20193;-53
2021/10/19 09:03:20;;;;;;;15.07;13.57;;;15.40;97.70;;;;;;5092179;28;20610;-55
2021/10/19 09:05:46;;;;;;;14.00;12.70;;;15.40;97.30;;;;;;5093444;28;20230;-53
2021/10/19 09:08:13;;;;;;;15.00;13.50;;;15.30;97.30;;;;;;5092790;28;20434;-55
2021/10/19 09:10:40;;;;;;;14.77;13.37;;;15.20;97.10;;;;;;5092599;28;20921;-52
2021/10/19 09:13:11;;;;;;;13.07;11.77;;;15.20;97.00;;;;;;5093645;28;20422;-54
2021/10/19 09:15:42;;;;;;;14.83;13.33;;;15.40;96.80;;;;;;5092260;28;20482;-51
2021/10/19 09:18:20;;;;;;;13.63;12.23;;;15.70;96.40;;;;;;5093241;28;20411;-52
2021/10/19 09:20:50;;;;;;;13.90;12.60;;;16.00;96.00;;;;;;5092629;28;20787;-55
2021/10/19 09:23:18;;;;;;;13.80;12.50;;;16.30;95.00;;;;;;5093484;28;20468;-53
2021/10/19 09:25:46;;;;;;;13.00;11.80;;;16.40;94.60;;;;;;5092111;28;20799;-52
2021/10/19 09:28:14;;;;;;;13.13;11.93;;;17.10;94.00;;;;;;5091286;28;20824;-52
2021/10/19 09:30:44;;;;;;;13.53;12.23;;;18.10;91.60;;;;;;5090757;28;20469;-56
2021/10/19 09:33:18;;;;;;;13.20;12.10;;;18.90;89.00;;;;;;5092404;28;20458;-53
2021/10/19 09:35:48;;;;;;;13.60;12.30;;;19.70;83.60;;;;;;5093016;28;20464;-55
2021/10/19 09:38:14;;;;;;;12.80;11.70;;;20.30;78.50;;;;;;5093033;28;20454;-52
2021/10/19 09:40:45;;;;;;;12.90;11.70;;;20.30;76.70;;;;;;5091667;28;20489;-52
2021/10/19 09:43:14;;;;;;;14.50;12.80;;;20.50;76.00;;;;;;5083925;28;20501;-51
2021/10/19 09:45:46;;;;;;;14.07;12.97;;;20.30;72.60;;;;;;5091540;28;20430;-50
2021/10/19 09:48:15;;;;;;;13.20;12.00;;;20.60;74.20;;;;;;5092140;28;20442;-53
2021/10/19 09:50:42;;;;;;;13.77;12.67;;;21.10;73.40;;;;;;5091325;28;20486;-55
2021/10/19 09:53:10;;;;;;;13.60;12.40;;;21.20;70.30;;;;;;5091146;28;20459;-57
2021/10/19 09:55:37;;;;;;;12.57;11.47;;;21.70;68.60;;;;;;5089315;28;20456;-53
2021/10/19 09:58:04;;;;;;;14.13;12.80;;;22.40;66.50;;;;;;5089520;28;20886;-55
2021/10/19 10:00:33;;;;;;;13.13;12.07;;;22.80;63.90;;;;;;5090308;28;20426;-53
2021/10/19 10:03:00;;;;;;;13.00;11.70;;;23.50;60.30;;;;;;5091130;28;20431;-50
2021/10/19 10:05:26;;;;;;;12.07;11.13;;;23.40;57.80;;;;;;5090180;28;20529;-55
2021/10/19 10:07:52;;;;;;;12.80;11.70;;;23.50;57.80;;;;;;5091065;28;20984;-57
2021/10/19 10:10:18;;;;;;;13.47;12.37;;;23.50;56.80;;;;;;5089996;28;20193;-52
2021/10/19 10:12:49;;;;;;;14.10;12.90;;;23.40;55.50;;;;;;5090864;28;20431;-49
2021/10/19 10:15:26;;;;;;;13.07;12.07;;;23.30;56.10;;;;;;5089908;28;20466;-52
2021/10/19 10:18:00;;;;;;;13.97;12.90;;;23.60;55.10;;;;;;5090660;28;20421;-55
2021/10/19 10:20:35;;;;;;;13.50;12.40;;;24.00;55.00;;;;;;5088803;28;20800;-54
2021/10/19 10:23:25;;;;;;;13.57;12.57;;;24.30;54.10;;;;;;5091163;28;20952;-55
2021/10/19 10:25:53;;;;;;;12.70;11.60;;;24.10;54.20;;;;;;5088924;28;20941;-52
2021/10/19 10:28:27;;;;;;;13.93;12.83;;;24.00;53.40;;;;;;5089901;28;20931;-55
2021/10/19 10:30:55;;;;;;;12.20;11.20;;;23.70;53.50;;;;;;5078394;28;20826;-56
2021/10/19 10:33:42;;;;;;;13.37;12.27;;;23.80;54.20;;;;;;5090514;28;20435;-54
2021/10/19 10:36:14;;;;;;;13.63;12.47;;;24.00;53.80;;;;;;5089784;28;20971;-54
2021/10/19 10:38:57;;;;;;;13.47;12.20;;;24.10;53.10;;;;;;5071711;28;20787;-54
2021/10/19 10:41:23;;;;;;;12.77;11.77;;;24.60;52.00;;;;;;5070396;28;20424;-53
2021/10/19 10:43:59;;;;;;;14.50;13.20;;;23.90;51.40;;;;;;5082211;28;20454;-55
2021/10/19 10:46:25;;;;;;;13.63;12.53;;;23.80;51.70;;;;;;5070151;28;20178;-51
2021/10/19 10:48:54;;;;;;;13.27;12.10;;;23.40;52.20;;;;;;5069859;28;20925;-51
2021/10/19 10:51:32;;;;;;;12.00;11.00;;;23.70;51.90;;;;;;5088964;28;20527;-52
2021/10/19 10:53:58;;;;;;;12.80;11.70;;;23.60;52.00;;;;;;5089723;28;20777;-51
2021/10/19 10:56:24;;;;;;;12.80;11.60;;;23.80;52.40;;;;;;5069157;28;20913;-53
2021/10/19 10:58:51;;;;;;;13.10;12.07;;;23.60;52.50;;;;;;5079933;28;20442;-55
2021/10/19 11:01:27;;;;;;;13.17;11.83;;;23.50;53.40;;;;;;5086688;28;20434;-58
2021/10/19 11:04:07;;;;;;;12.97;11.97;;;23.90;54.00;;;;;;5088132;28;20418;-51
2021/10/19 11:06:34;;;;;;;12.13;11.13;;;24.20;53.80;;;;;;5087430;28;21139;-53
2021/10/19 11:09:11;;;;;;;13.00;12.00;;;24.40;51.40;;;;;;5077366;28;21274;-54
2021/10/19 11:11:39;;;;;;;13.30;12.20;;;24.30;51.10;;;;;;5082879;28;20432;-53
2021/10/19 11:14:15;;;;;;;11.90;11.00;;;24.30;51.60;;;;;;5087869;28;20756;-52
2021/10/19 11:16:45;;;;;;;13.40;12.33;;;24.50;52.70;;;;;;5083818;28;20435;-52
2021/10/19 11:19:16;;;;;;;12.40;11.40;;;24.90;51.60;;;;;;5083514;28;20476;-57
2021/10/19 11:21:42;;;;;;;12.63;11.70;;;25.20;50.80;;;;;;5087364;28;20419;-55
2021/10/19 11:24:09;;;;;;;13.40;12.40;;;24.80;50.00;;;;;;5088131;28;20560;-56
2021/10/19 11:26:34;;;;;;;12.53;11.63;;;24.80;51.30;;;;;;5088827;28;20432;-54
2021/10/19 11:29:00;;;;;;;12.43;11.40;;;25.10;51.30;;;;;;5089276;28;20769;-55
2021/10/19 11:31:28;;;;;;;11.40;10.53;;;25.50;49.90;;;;;;5087171;28;20650;-56
2021/10/19 11:33:55;;;;;;;12.40;11.50;;;25.40;49.60;;;;;;5089549;28;20531;-53
2021/10/19 11:36:21;;;;;;;12.53;11.53;;;25.00;50.30;;;;;;5088940;28;20397;-54
2021/10/19 11:38:49;;;;;;;11.33;10.43;;;25.40;50.40;;;;;;5089507;28;20421;-53
2021/10/19 11:41:17;;;;;;;12.27;11.33;;;25.40;49.80;;;;;;5088265;28;20448;-54
2021/10/19 11:43:51;;;;;;;11.77;10.77;;;25.70;50.70;;;;;;5089325;28;20425;-56
2021/10/19 11:46:19;;;;;;;11.57;10.70;;;26.00;49.10;;;;;;5086441;28;20852;-56
2021/10/19 11:48:48;;;;;;;11.63;10.83;;;26.80;46.70;;;;;;5084907;28;20443;-48
2021/10/19 11:51:15;;;;;;;11.90;11.00;;;27.40;45.70;;;;;;5083573;28;20478;-54
2021/10/19 11:53:42;;;;;;;11.50;10.60;;;27.20;45.00;;;;;;5088108;28;20420;-50
2021/10/19 11:56:12;;;;;;;12.07;11.17;;;27.20;45.40;;;;;;5089065;28;20465;-53
2021/10/19 11:58:54;;;;;;;12.10;11.17;;;27.50;45.20;;;;;;5075884;28;21121;-57
2021/10/19 12:01:25;;;;;;;11.00;10.00;;;28.30;42.50;;;;;;5085711;28;21029;-54
2021/10/19 12:03:56;;;;;;;10.43;9.70;;;28.90;41.20;;;;;;5073189;28;20889;-52
2021/10/19 12:06:28;;;;;;;11.80;10.90;;;29.10;39.70;;;;;;5088116;28;20414;-54
2021/10/19 12:08:55;;;;;;;11.97;10.90;;;29.00;40.50;;;;;;5068685;28;20449;-56
2021/10/19 12:11:24;;;;;;;12.30;11.40;;;29.00;39.00;;;;;;5079974;28;20521;-53
2021/10/19 12:13:57;;;;;;;11.57;10.77;;;28.90;39.50;;;;;;5088151;28;20462;-55
2021/10/19 12:16:30;;;;;;;10.70;10.00;;;29.00;38.40;;;;;;5088246;28;20498;-55
2021/10/19 12:18:59;;;;;;;10.87;10.00;;;29.10;39.90;;;;;;5087720;28;20442;-55
2021/10/19 12:21:27;;;;;;;12.83;11.90;;;29.10;37.90;;;;;;5088896;28;20395;-53
2021/10/19 12:23:58;;;;;;;11.50;10.70;;;28.30;40.70;;;;;;5087802;28;20474;-49
2021/10/19 12:26:27;;;;;;;11.83;10.80;;;27.50;40.50;;;;;;5086236;28;20442;-55
2021/10/19 12:29:00;;;;;;;11.40;10.50;;;26.40;41.80;;;;;;5079017;28;20527;-55